sensor_id;sensor_type;location;lat;lon;timestamp;pressure;altitude;pressure_sealevel;temperature;humidity
5500;BME280;2772;42.700;23.304;2023-05-24T00:01:47;94901.75;;;15.88;100.00
5500;BME280;2772;42.700;23.304;2023-05-24T00:04:14;94906.13;;;15.80;100.00
5500;BME280;2772;42.700;23.304;2023-05-24T00:06:40;94907.81;;;15.84;100.00
5500;BME280;2772;42.700;23.304;2023-05-24T00:09:09;94914.16;;;15.92;100.00
5500;BME280;2772;42.700;23.304;2023-05-24T00:11:36;94909.28;;;15.98;100.00
5500;BME280;2772;42.700;23.304;2023-05-24T00:14:03;94905.19;;;15.88;100.00
5500;BME280;2772;42.700;23.304;2023-05-24T00:16:31;94902.16;;;15.74;100.00
5500;BME280;2772;42.700;23.304;2023-05-24T00:18:58;94904.78;;;15.86;100.00
5500;BME280;2772;42.700;23.304;2023-05-24T00:21:24;94902.72;;;15.95;100.00
5500;BME280;2772;42.700;23.304;2023-05-24T00:23:51;94904.97;;;15.93;100.00
5500;BME280;2772;42.700;23.304;2023-05-24T00:26:18;94905.66;;;15.90;100.00
5500;BME280;2772;42.700;23.304;2023-05-24T00:28:45;94902.34;;;15.81;100.00
5500;BME280;2772;42.700;23.304;2023-05-24T00:31:12;94887.63;;;15.75;100.00
5500;BME280;2772;42.700;23.304;2023-05-24T00:33:40;94891.59;;;15.81;100.00
5500;BME280;2772;42.700;23.304;2023-05-24T00:36:07;94892.47;;;15.85;100.00
5500;BME280;2772;42.700;23.304;2023-05-24T00:38:34;94880.75;;;15.77;100.00
5500;BME280;2772;42.700;23.304;2023-05-24T00:41:01;94884.03;;;15.71;100.00
5500;BME280;2772;42.700;23.304;2023-05-24T00:43:27;94875.81;;;15.64;100.00
5500;BME280;2772;42.700;23.304;2023-05-24T00:46:11;94872.94;;;15.72;100.00
5500;BME280;2772;42.700;23.304;2023-05-24T00:48:40;94889.50;;;15.74;100.00
5500;BME280;2772;42.700;23.304;2023-05-24T00:51:07;94880.50;;;15.67;100.00
5500;BME280;2772;42.700;23.304;2023-05-24T00:53:35;94889.13;;;15.60;100.00
5500;BME280;2772;42.700;23.304;2023-05-24T00:56:02;94888.50;;;15.51;100.00
5500;BME280;2772;42.700;23.304;2023-05-24T00:58:29;94894.63;;;15.52;100.00
5500;BME280;2772;42.700;23.304;2023-05-24T01:00:58;94888.59;;;15.55;100.00
5500;BME280;2772;42.700;23.304;2023-05-24T01:03:25;94882.34;;;15.51;100.00
5500;BME280;2772;42.700;23.304;2023-05-24T01:05:55;94888.88;;;15.38;100.00
5500;BME280;2772;42.700;23.304;2023-05-24T01:08:42;94893.06;;;15.23;100.00
5500;BME280;2772;42.700;23.304;2023-05-24T01:11:25;94891.38;;;15.19;100.00
5500;BME280;2772;42.700;23.304;2023-05-24T01:13:58;94898.41;;;15.23;100.00
5500;BME280;2772;42.700;23.304;2023-05-24T01:16:35;94895.50;;;15.16;100.00
5500;BME280;2772;42.700;23.304;2023-05-24T01:19:22;94886.25;;;15.14;100.00
5500;BME280;2772;42.700;23.304;2023-05-24T01:22:07;94891.63;;;15.14;100.00
5500;BME280;2772;42.700;23.304;2023-05-24T01:24:43;94890.50;;;15.15;100.00
5500;BME280;2772;42.700;23.304;2023-05-24T01:27:16;94891.13;;;15.24;100.00
5500;BME280;2772;42.700;23.304;2023-05-24T01:29:43;94896.94;;;15.26;100.00
5500;BME280;2772;42.700;23.304;2023-05-24T01:32:11;94902.88;;;15.19;100.00
5500;BME280;2772;42.700;23.304;2023-05-24T01:34:37;94893.84;;;15.12;100.00
5500;BME280;2772;42.700;23.304;2023-05-24T01:37:04;94888.50;;;15.12;100.00
5500;BME280;2772;42.700;23.304;2023-05-24T01:39:31;94890.03;;;15.13;100.00
5500;BME280;2772;42.700;23.304;2023-05-24T01:42:18;94893.16;;;15.15;100.00
5500;BME280;2772;42.700;23.304;2023-05-24T01:44:56;94882.00;;;15.13;100.00
5500;BME280;2772;42.700;23.304;2023-05-24T01:47:33;94885.69;;;15.20;100.00
5500;BME280;2772;42.700;23.304;2023-05-24T01:50:10;94876.72;;;15.16;100.00
5500;BME280;2772;42.700;23.304;2023-05-24T01:52:43;94872.28;;;15.08;100.00
5500;BME280;2772;42.700;23.304;2023-05-24T01:55:12;94879.47;;;15.04;100.00
5500;BME280;2772;42.700;23.304;2023-05-24T01:57:42;94876.78;;;15.04;100.00
5500;BME280;2772;42.700;23.304;2023-05-24T02:00:12;94870.63;;;15.04;100.00
5500;BME280;2772;42.700;23.304;2023-05-24T02:02:39;94868.84;;;14.96;100.00
5500;BME280;2772;42.700;23.304;2023-05-24T02:05:07;94860.47;;;14.97;100.00
5500;BME280;2772;42.700;23.304;2023-05-24T02:07:35;94866.84;;;14.93;100.00
5500;BME280;2772;42.700;23.304;2023-05-24T02:10:02;94863.50;;;14.96;100.00
5500;BME280;2772;42.700;23.304;2023-05-24T02:12:29;94863.25;;;15.01;100.00
5500;BME280;2772;42.700;23.304;2023-05-24T02:14:56;94858.78;;;15.05;100.00
5500;BME280;2772;42.700;23.304;2023-05-24T02:17:24;94864.63;;;14.95;100.00
5500;BME280;2772;42.700;23.304;2023-05-24T02:19:51;94873.56;;;14.87;100.00
5500;BME280;2772;42.700;23.304;2023-05-24T02:22:18;94861.53;;;14.81;100.00
5500;BME280;2772;42.700;23.304;2023-05-24T02:24:46;94853.69;;;14.88;100.00
5500;BME280;2772;42.700;23.304;2023-05-24T02:27:13;94858.81;;;14.93;100.00
5500;BME280;2772;42.700;23.304;2023-05-24T02:29:40;94858.16;;;14.84;100.00
5500;BME280;2772;42.700;23.304;2023-05-24T02:32:07;94863.97;;;14.86;100.00
5500;BME280;2772;42.700;23.304;2023-05-24T02:34:35;94857.25;;;14.92;100.00
5500;BME280;2772;42.700;23.304;2023-05-24T02:37:02;94850.00;;;14.92;100.00
5500;BME280;2772;42.700;23.304;2023-05-24T02:39:29;94859.25;;;14.95;100.00
5500;BME280;2772;42.700;23.304;2023-05-24T02:41:56;94861.94;;;14.95;100.00
5500;BME280;2772;42.700;23.304;2023-05-24T02:44:22;94868.44;;;14.94;100.00
5500;BME280;2772;42.700;23.304;2023-05-24T02:46:49;94875.16;;;14.88;100.00
5500;BME280;2772;42.700;23.304;2023-05-24T02:49:16;94871.56;;;14.84;100.00
5500;BME280;2772;42.700;23.304;2023-05-24T02:51:44;94874.13;;;14.80;100.00
5500;BME280;2772;42.700;23.304;2023-05-24T02:54:10;94871.78;;;14.79;100.00
5500;BME280;2772;42.700;23.304;2023-05-24T02:56:37;94878.28;;;14.78;100.00
5500;BME280;2772;42.700;23.304;2023-05-24T02:59:05;94872.81;;;14.74;100.00
5500;BME280;2772;42.700;23.304;2023-05-24T03:01:32;94877.50;;;14.77;100.00
5500;BME280;2772;42.700;23.304;2023-05-24T03:03:59;94879.88;;;14.67;100.00
5500;BME280;2772;42.700;23.304;2023-05-24T03:06:26;94877.53;;;14.65;100.00
5500;BME280;2772;42.700;23.304;2023-05-24T03:08:54;94885.09;;;14.63;100.00
5500;BME280;2772;42.700;23.304;2023-05-24T03:11:22;94883.56;;;14.62;100.00
5500;BME280;2772;42.700;23.304;2023-05-24T03:13:49;94887.44;;;14.65;100.00
5500;BME280;2772;42.700;23.304;2023-05-24T03:16:16;94896.97;;;14.62;100.00
5500;BME280;2772;42.700;23.304;2023-05-24T03:18:42;94887.91;;;14.55;100.00
5500;BME280;2772;42.700;23.304;2023-05-24T03:21:09;94887.69;;;14.36;100.00
5500;BME280;2772;42.700;23.304;2023-05-24T03:23:36;94893.44;;;14.13;100.00
5500;BME280;2772;42.700;23.304;2023-05-24T03:26:04;94899.97;;;14.24;100.00
5500;BME280;2772;42.700;23.304;2023-05-24T03:28:31;94890.91;;;14.29;100.00
5500;BME280;2772;42.700;23.304;2023-05-24T03:30:58;94899.53;;;14.35;100.00
5500;BME280;2772;42.700;23.304;2023-05-24T03:33:25;94902.66;;;14.24;100.00
5500;BME280;2772;42.700;23.304;2023-05-24T03:35:52;94905.16;;;14.21;100.00
5500;BME280;2772;42.700;23.304;2023-05-24T03:38:19;94906.41;;;14.23;100.00
5500;BME280;2772;42.700;23.304;2023-05-24T03:40:45;94903.38;;;14.13;100.00
5500;BME280;2772;42.700;23.304;2023-05-24T03:43:14;94911.75;;;14.11;100.00
5500;BME280;2772;42.700;23.304;2023-05-24T03:45:41;94912.00;;;14.18;100.00
5500;BME280;2772;42.700;23.304;2023-05-24T03:48:08;94905.41;;;14.16;100.00
5500;BME280;2772;42.700;23.304;2023-05-24T03:50:34;94903.44;;;14.37;100.00
5500;BME280;2772;42.700;23.304;2023-05-24T03:53:01;94907.47;;;14.31;100.00
5500;BME280;2772;42.700;23.304;2023-05-24T03:55:28;94908.03;;;14.49;100.00
5500;BME280;2772;42.700;23.304;2023-05-24T03:57:55;94910.56;;;14.57;100.00
5500;BME280;2772;42.700;23.304;2023-05-24T04:00:23;94913.91;;;14.66;100.00
5500;BME280;2772;42.700;23.304;2023-05-24T04:02:50;94911.78;;;14.84;100.00
5500;BME280;2772;42.700;23.304;2023-05-24T04:05:17;94918.97;;;14.80;100.00
5500;BME280;2772;42.700;23.304;2023-05-24T04:07:44;94914.16;;;14.73;100.00
5500;BME280;2772;42.700;23.304;2023-05-24T04:10:10;94913.81;;;14.75;100.00
5500;BME280;2772;42.700;23.304;2023-05-24T04:12:37;94920.94;;;14.95;100.00
5500;BME280;2772;42.700;23.304;2023-05-24T04:15:05;94917.34;;;15.03;100.00
5500;BME280;2772;42.700;23.304;2023-05-24T04:17:33;94922.72;;;15.03;100.00
5500;BME280;2772;42.700;23.304;2023-05-24T04:20:00;94928.28;;;15.22;100.00
5500;BME280;2772;42.700;23.304;2023-05-24T04:22:26;94927.53;;;15.37;100.00
5500;BME280;2772;42.700;23.304;2023-05-24T04:24:53;94928.44;;;15.53;100.00
5500;BME280;2772;42.700;23.304;2023-05-24T04:27:20;94926.19;;;15.55;100.00
5500;BME280;2772;42.700;23.304;2023-05-24T04:29:46;94930.88;;;15.58;100.00
5500;BME280;2772;42.700;23.304;2023-05-24T04:32:14;94932.66;;;15.54;100.00
5500;BME280;2772;42.700;23.304;2023-05-24T04:34:43;94938.19;;;15.73;100.00
5500;BME280;2772;42.700;23.304;2023-05-24T04:37:11;94938.44;;;15.68;100.00
5500;BME280;2772;42.700;23.304;2023-05-24T04:39:42;94946.69;;;15.75;100.00
5500;BME280;2772;42.700;23.304;2023-05-24T04:42:09;94948.44;;;15.83;100.00
5500;BME280;2772;42.700;23.304;2023-05-24T04:44:35;94954.25;;;15.85;100.00
5500;BME280;2772;42.700;23.304;2023-05-24T04:47:03;94963.31;;;15.80;100.00
5500;BME280;2772;42.700;23.304;2023-05-24T04:49:30;94966.56;;;15.86;100.00
5500;BME280;2772;42.700;23.304;2023-05-24T04:51:58;94967.78;;;15.88;100.00
5500;BME280;2772;42.700;23.304;2023-05-24T04:54:24;94975.69;;;15.97;100.00
5500;BME280;2772;42.700;23.304;2023-05-24T04:56:51;94981.25;;;16.04;100.00
5500;BME280;2772;42.700;23.304;2023-05-24T04:59:18;94976.56;;;16.01;100.00
5500;BME280;2772;42.700;23.304;2023-05-24T05:01:45;94980.03;;;16.02;100.00
5500;BME280;2772;42.700;23.304;2023-05-24T05:04:12;94980.31;;;16.12;100.00
5500;BME280;2772;42.700;23.304;2023-05-24T05:06:39;94987.50;;;16.24;100.00
5500;BME280;2772;42.700;23.304;2023-05-24T05:09:09;94998.56;;;16.34;100.00
5500;BME280;2772;42.700;23.304;2023-05-24T05:11:38;94994.78;;;16.51;100.00
5500;BME280;2772;42.700;23.304;2023-05-24T05:14:05;94989.66;;;16.61;100.00
5500;BME280;2772;42.700;23.304;2023-05-24T05:16:33;94994.00;;;16.66;100.00
5500;BME280;2772;42.700;23.304;2023-05-24T05:19:00;95000.78;;;16.75;100.00
5500;BME280;2772;42.700;23.304;2023-05-24T05:21:29;95007.53;;;16.85;100.00
5500;BME280;2772;42.700;23.304;2023-05-24T05:23:57;95014.16;;;16.87;100.00
5500;BME280;2772;42.700;23.304;2023-05-24T05:26:25;95003.41;;;16.87;100.00
5500;BME280;2772;42.700;23.304;2023-05-24T05:28:52;95005.13;;;16.95;100.00
5500;BME280;2772;42.700;23.304;2023-05-24T05:31:20;95012.56;;;17.02;100.00
5500;BME280;2772;42.700;23.304;2023-05-24T05:33:46;95010.06;;;17.09;100.00
5500;BME280;2772;42.700;23.304;2023-05-24T05:36:13;95012.28;;;17.22;100.00
5500;BME280;2772;42.700;23.304;2023-05-24T05:38:40;95011.31;;;17.30;100.00
5500;BME280;2772;42.700;23.304;2023-05-24T05:41:07;95011.41;;;17.34;100.00
5500;BME280;2772;42.700;23.304;2023-05-24T05:43:35;95009.16;;;17.36;100.00
5500;BME280;2772;42.700;23.304;2023-05-24T05:46:02;95008.81;;;17.37;100.00
5500;BME280;2772;42.700;23.304;2023-05-24T05:48:29;95020.19;;;17.47;100.00
5500;BME280;2772;42.700;23.304;2023-05-24T05:50:55;95019.63;;;17.57;100.00
5500;BME280;2772;42.700;23.304;2023-05-24T05:53:22;95013.03;;;17.54;100.00
5500;BME280;2772;42.700;23.304;2023-05-24T05:55:49;95023.56;;;17.78;100.00
5500;BME280;2772;42.700;23.304;2023-05-24T05:58:16;95027.19;;;17.86;100.00
5500;BME280;2772;42.700;23.304;2023-05-24T06:00:44;95023.78;;;17.89;100.00
5500;BME280;2772;42.700;23.304;2023-05-24T06:03:11;95027.59;;;17.88;100.00
5500;BME280;2772;42.700;23.304;2023-05-24T06:05:37;95025.06;;;17.95;100.00
5500;BME280;2772;42.700;23.304;2023-05-24T06:08:04;95021.06;;;18.27;100.00
5500;BME280;2772;42.700;23.304;2023-05-24T06:10:31;95023.56;;;18.35;100.00
5500;BME280;2772;42.700;23.304;2023-05-24T06:13:00;95026.09;;;18.47;100.00
5500;BME280;2772;42.700;23.304;2023-05-24T06:15:27;95035.41;;;18.50;100.00
5500;BME280;2772;42.700;23.304;2023-05-24T06:17:55;95024.28;;;18.51;100.00
5500;BME280;2772;42.700;23.304;2023-05-24T06:20:22;95029.16;;;18.46;100.00
5500;BME280;2772;42.700;23.304;2023-05-24T06:22:48;95026.63;;;18.53;100.00
5500;BME280;2772;42.700;23.304;2023-05-24T06:25:15;95029.25;;;18.49;100.00
5500;BME280;2772;42.700;23.304;2023-05-24T06:27:45;95031.16;;;18.49;100.00
5500;BME280;2772;42.700;23.304;2023-05-24T06:30:12;95021.75;;;18.62;100.00
5500;BME280;2772;42.700;23.304;2023-05-24T06:32:39;95021.47;;;18.67;100.00
5500;BME280;2772;42.700;23.304;2023-05-24T06:35:08;95021.28;;;18.79;100.00
5500;BME280;2772;42.700;23.304;2023-05-24T06:37:35;95028.38;;;18.87;100.00
5500;BME280;2772;42.700;23.304;2023-05-24T06:40:04;95017.81;;;19.01;100.00
5500;BME280;2772;42.700;23.304;2023-05-24T06:42:31;95024.91;;;19.13;100.00
5500;BME280;2772;42.700;23.304;2023-05-24T06:44:58;95020.19;;;19.29;100.00
5500;BME280;2772;42.700;23.304;2023-05-24T06:47:24;95021.91;;;19.40;100.00
5500;BME280;2772;42.700;23.304;2023-05-24T06:49:51;95020.81;;;19.45;100.00
5500;BME280;2772;42.700;23.304;2023-05-24T06:52:19;95017.13;;;19.56;100.00
5500;BME280;2772;42.700;23.304;2023-05-24T06:54:46;95022.63;;;19.63;100.00
5500;BME280;2772;42.700;23.304;2023-05-24T06:57:13;95015.75;;;19.69;100.00
5500;BME280;2772;42.700;23.304;2023-05-24T06:59:39;95012.13;;;19.58;100.00
5500;BME280;2772;42.700;23.304;2023-05-24T07:02:06;95011.03;;;19.63;100.00
5500;BME280;2772;42.700;23.304;2023-05-24T07:04:33;95013.38;;;19.64;100.00
5500;BME280;2772;42.700;23.304;2023-05-24T07:07:00;95010.84;;;19.78;100.00
5500;BME280;2772;42.700;23.304;2023-05-24T07:09:28;95009.06;;;19.86;100.00
5500;BME280;2772;42.700;23.304;2023-05-24T07:11:55;95023.19;;;20.05;100.00
5500;BME280;2772;42.700;23.304;2023-05-24T07:14:22;95012.75;;;20.04;100.00
5500;BME280;2772;42.700;23.304;2023-05-24T07:16:50;95014.06;;;20.13;100.00
5500;BME280;2772;42.700;23.304;2023-05-24T07:19:19;95014.09;;;20.17;100.00
5500;BME280;2772;42.700;23.304;2023-05-24T07:21:46;95013.16;;;20.35;100.00
5500;BME280;2772;42.700;23.304;2023-05-24T07:24:13;95020.59;;;20.45;100.00
5500;BME280;2772;42.700;23.304;2023-05-24T07:26:41;95013.72;;;20.55;100.00
5500;BME280;2772;42.700;23.304;2023-05-24T07:29:08;95015.31;;;20.60;100.00
5500;BME280;2772;42.700;23.304;2023-05-24T07:31:35;95019.38;;;20.76;100.00
5500;BME280;2772;42.700;23.304;2023-05-24T07:34:02;95024.84;;;20.83;100.00
5500;BME280;2772;42.700;23.304;2023-05-24T07:36:29;95025.59;;;20.80;100.00
5500;BME280;2772;42.700;23.304;2023-05-24T07:38:57;95025.63;;;20.84;100.00
5500;BME280;2772;42.700;23.304;2023-05-24T07:41:25;95017.94;;;20.89;100.00
5500;BME280;2772;42.700;23.304;2023-05-24T07:43:54;95023.78;;;20.95;100.00
5500;BME280;2772;42.700;23.304;2023-05-24T07:46:21;95027.38;;;21.02;100.00
5500;BME280;2772;42.700;23.304;2023-05-24T07:48:47;95016.56;;;21.06;100.00
5500;BME280;2772;42.700;23.304;2023-05-24T07:51:14;95027.53;;;21.20;100.00
5500;BME280;2772;42.700;23.304;2023-05-24T07:53:41;95019.81;;;21.25;98.95
5500;BME280;2772;42.700;23.304;2023-05-24T07:56:07;95024.09;;;21.30;99.18
5500;BME280;2772;42.700;23.304;2023-05-24T07:58:35;95012.47;;;21.26;98.83
5500;BME280;2772;42.700;23.304;2023-05-24T08:01:03;95012.13;;;21.34;98.57
5500;BME280;2772;42.700;23.304;2023-05-24T08:03:30;95015.66;;;21.38;97.71
5500;BME280;2772;42.700;23.304;2023-05-24T08:05:57;95010.66;;;21.40;96.84
5500;BME280;2772;42.700;23.304;2023-05-24T08:08:24;95005.22;;;21.44;94.80
5500;BME280;2772;42.700;23.304;2023-05-24T08:10:51;95009.13;;;21.50;96.86
5500;BME280;2772;42.700;23.304;2023-05-24T08:13:17;95016.97;;;21.62;95.83
5500;BME280;2772;42.700;23.304;2023-05-24T08:15:44;95015.09;;;21.69;89.66
5500;BME280;2772;42.700;23.304;2023-05-24T08:18:12;95010.88;;;21.75;87.22
5500;BME280;2772;42.700;23.304;2023-05-24T08:20:39;95007.00;;;21.76;82.49
5500;BME280;2772;42.700;23.304;2023-05-24T08:23:06;95003.19;;;21.84;82.34
5500;BME280;2772;42.700;23.304;2023-05-24T08:25:33;95002.50;;;21.98;80.75
5500;BME280;2772;42.700;23.304;2023-05-24T08:28:00;94999.78;;;22.02;79.36
5500;BME280;2772;42.700;23.304;2023-05-24T08:30:27;95002.50;;;22.05;70.74
5500;BME280;2772;42.700;23.304;2023-05-24T08:32:53;95007.19;;;22.12;68.17
5500;BME280;2772;42.700;23.304;2023-05-24T08:35:21;95005.66;;;22.18;66.08
5500;BME280;2772;42.700;23.304;2023-05-24T08:37:48;95004.91;;;22.24;63.80
5500;BME280;2772;42.700;23.304;2023-05-24T08:40:15;95004.16;;;22.31;65.74
5500;BME280;2772;42.700;23.304;2023-05-24T08:42:43;95003.81;;;22.36;67.06
5500;BME280;2772;42.700;23.304;2023-05-24T08:45:11;95001.13;;;22.46;68.94
5500;BME280;2772;42.700;23.304;2023-05-24T08:47:39;94992.63;;;22.51;66.73
5500;BME280;2772;42.700;23.304;2023-05-24T08:50:07;94997.28;;;22.54;62.36
5500;BME280;2772;42.700;23.304;2023-05-24T08:52:35;94998.06;;;22.58;64.33
5500;BME280;2772;42.700;23.304;2023-05-24T08:55:03;95003.88;;;22.60;66.78
5500;BME280;2772;42.700;23.304;2023-05-24T08:57:31;94987.22;;;22.65;64.41
5500;BME280;2772;42.700;23.304;2023-05-24T08:59:59;94993.81;;;22.68;60.36
5500;BME280;2772;42.700;23.304;2023-05-24T09:02:26;94983.75;;;22.68;60.85
5500;BME280;2772;42.700;23.304;2023-05-24T09:04:53;94987.22;;;22.69;60.56
5500;BME280;2772;42.700;23.304;2023-05-24T09:07:21;94996.13;;;22.76;59.36
5500;BME280;2772;42.700;23.304;2023-05-24T09:09:56;94988.00;;;22.83;60.08
5500;BME280;2772;42.700;23.304;2023-05-24T09:12:25;94988.78;;;22.87;60.28
5500;BME280;2772;42.700;23.304;2023-05-24T09:14:53;94995.00;;;22.91;58.36
5500;BME280;2772;42.700;23.304;2023-05-24T09:17:20;94987.66;;;23.02;60.20
5500;BME280;2772;42.700;23.304;2023-05-24T09:19:49;94978.34;;;23.10;60.40
5500;BME280;2772;42.700;23.304;2023-05-24T09:22:17;94986.47;;;23.24;59.98
5500;BME280;2772;42.700;23.304;2023-05-24T09:24:48;94975.22;;;23.33;59.70
5500;BME280;2772;42.700;23.304;2023-05-24T09:27:16;94986.50;;;23.38;57.42
5500;BME280;2772;42.700;23.304;2023-05-24T09:29:46;94988.81;;;23.40;57.16
5500;BME280;2772;42.700;23.304;2023-05-24T09:32:14;94978.72;;;23.44;55.80
5500;BME280;2772;42.700;23.304;2023-05-24T09:34:41;94976.38;;;23.46;56.05
5500;BME280;2772;42.700;23.304;2023-05-24T09:37:09;94973.28;;;23.48;53.75
5500;BME280;2772;42.700;23.304;2023-05-24T09:39:39;94979.09;;;23.46;53.90
5500;BME280;2772;42.700;23.304;2023-05-24T09:42:07;94972.50;;;23.54;55.02
5500;BME280;2772;42.700;23.304;2023-05-24T09:44:35;94979.09;;;23.64;55.80
5500;BME280;2772;42.700;23.304;2023-05-24T09:47:02;94977.13;;;23.68;54.27
5500;BME280;2772;42.700;23.304;2023-05-24T09:49:30;94977.88;;;23.72;54.56
5500;BME280;2772;42.700;23.304;2023-05-24T09:51:57;94965.81;;;23.80;53.70
5500;BME280;2772;42.700;23.304;2023-05-24T09:54:24;94972.41;;;23.82;50.50
5500;BME280;2772;42.700;23.304;2023-05-24T09:56:51;94972.03;;;23.84;49.13
5500;BME280;2772;42.700;23.304;2023-05-24T09:59:18;94981.72;;;23.81;48.91
5500;BME280;2772;42.700;23.304;2023-05-24T10:01:46;94972.81;;;23.81;49.07
5500;BME280;2772;42.700;23.304;2023-05-24T10:04:18;94972.00;;;23.91;49.07
5500;BME280;2772;42.700;23.304;2023-05-24T10:06:45;94972.00;;;23.98;49.12
5500;BME280;2772;42.700;23.304;2023-05-24T10:09:13;94966.16;;;24.03;47.11
5500;BME280;2772;42.700;23.304;2023-05-24T10:11:40;94966.91;;;24.10;46.78
5500;BME280;2772;42.700;23.304;2023-05-24T10:14:08;94971.16;;;24.15;46.97
5500;BME280;2772;42.700;23.304;2023-05-24T10:16:35;94957.88;;;24.24;48.51
5500;BME280;2772;42.700;23.304;2023-05-24T10:19:04;94951.25;;;24.32;47.90
5500;BME280;2772;42.700;23.304;2023-05-24T10:21:31;94964.47;;;24.30;47.54
5500;BME280;2772;42.700;23.304;2023-05-24T10:24:02;94959.41;;;24.28;47.07
5500;BME280;2772;42.700;23.304;2023-05-24T10:26:32;94956.69;;;24.32;47.35
5500;BME280;2772;42.700;23.304;2023-05-24T10:29:05;94944.22;;;24.34;48.26
5500;BME280;2772;42.700;23.304;2023-05-24T10:31:35;94955.47;;;24.43;48.32
5500;BME280;2772;42.700;23.304;2023-05-24T10:34:06;94949.56;;;24.52;47.53
5500;BME280;2772;42.700;23.304;2023-05-24T10:36:34;94944.91;;;24.49;47.30
5500;BME280;2772;42.700;23.304;2023-05-24T10:39:01;94942.91;;;24.60;47.12
5500;BME280;2772;42.700;23.304;2023-05-24T10:41:28;94936.25;;;24.64;48.48
5500;BME280;2772;42.700;23.304;2023-05-24T10:43:56;94930.41;;;24.73;48.42
5500;BME280;2772;42.700;23.304;2023-05-24T10:46:22;94937.00;;;24.72;47.79
5500;BME280;2772;42.700;23.304;2023-05-24T10:48:59;94933.84;;;24.77;47.83
5500;BME280;2772;42.700;23.304;2023-05-24T10:51:36;94931.84;;;24.84;49.23
5500;BME280;2772;42.700;23.304;2023-05-24T10:54:14;94924.38;;;24.92;47.50
5500;BME280;2772;42.700;23.304;2023-05-24T10:56:43;94919.06;;;24.78;46.45
5500;BME280;2772;42.700;23.304;2023-05-24T10:59:22;94923.28;;;24.82;47.33
5500;BME280;2772;42.700;23.304;2023-05-24T11:01:56;94922.94;;;24.80;46.86
5500;BME280;2772;42.700;23.304;2023-05-24T11:04:23;94916.78;;;24.73;45.61
5500;BME280;2772;42.700;23.304;2023-05-24T11:06:55;94917.50;;;24.77;46.16
5500;BME280;2772;42.700;23.304;2023-05-24T11:09:23;94919.84;;;24.78;45.68
5500;BME280;2772;42.700;23.304;2023-05-24T11:11:53;94913.97;;;24.83;45.94
5500;BME280;2772;42.700;23.304;2023-05-24T11:14:22;94915.00;;;24.96;46.40
5500;BME280;2772;42.700;23.304;2023-05-24T11:16:49;94913.47;;;24.95;46.76
5500;BME280;2772;42.700;23.304;2023-05-24T11:19:18;94913.94;;;24.87;46.70
5500;BME280;2772;42.700;23.304;2023-05-24T11:21:46;94917.78;;;24.93;45.90
5500;BME280;2772;42.700;23.304;2023-05-24T11:24:15;94915.78;;;24.97;46.34
5500;BME280;2772;42.700;23.304;2023-05-24T11:26:42;94916.22;;;24.92;46.66
5500;BME280;2772;42.700;23.304;2023-05-24T11:29:09;94907.22;;;24.98;47.15
5500;BME280;2772;42.700;23.304;2023-05-24T11:31:37;94896.69;;;25.01;46.75
5500;BME280;2772;42.700;23.304;2023-05-24T11:34:08;94903.28;;;25.03;46.99
5500;BME280;2772;42.700;23.304;2023-05-24T11:36:36;94903.22;;;25.10;47.60
5500;BME280;2772;42.700;23.304;2023-05-24T11:39:06;94893.41;;;25.16;46.93
5500;BME280;2772;42.700;23.304;2023-05-24T11:41:36;94896.81;;;25.27;46.97
5500;BME280;2772;42.700;23.304;2023-05-24T11:44:03;94894.78;;;25.38;46.34
5500;BME280;2772;42.700;23.304;2023-05-24T11:46:30;94890.00;;;25.49;47.49
5500;BME280;2772;42.700;23.304;2023-05-24T11:48:57;94892.59;;;25.60;46.14
5500;BME280;2772;42.700;23.304;2023-05-24T11:51:25;94889.44;;;25.65;45.46
5500;BME280;2772;42.700;23.304;2023-05-24T11:53:53;94883.59;;;25.63;44.21
5500;BME280;2772;42.700;23.304;2023-05-24T11:56:19;94874.19;;;25.67;45.14
5500;BME280;2772;42.700;23.304;2023-05-24T11:58:51;94876.13;;;25.67;44.94
5500;BME280;2772;42.700;23.304;2023-05-24T12:01:24;94876.19;;;25.63;44.59
5500;BME280;2772;42.700;23.304;2023-05-24T12:03:51;94875.78;;;25.65;45.30
5500;BME280;2772;42.700;23.304;2023-05-24T12:06:19;94873.06;;;25.65;45.24
5500;BME280;2772;42.700;23.304;2023-05-24T12:08:46;94879.66;;;25.67;45.18
5500;BME280;2772;42.700;23.304;2023-05-24T12:11:12;94877.72;;;25.68;43.81
5500;BME280;2772;42.700;23.304;2023-05-24T12:13:40;94873.03;;;25.68;43.27
5500;BME280;2772;42.700;23.304;2023-05-24T12:16:11;94875.38;;;25.66;43.92
5500;BME280;2772;42.700;23.304;2023-05-24T12:18:41;94872.94;;;25.75;43.40
5500;BME280;2772;42.700;23.304;2023-05-24T12:21:08;94860.75;;;25.83;44.11
5500;BME280;2772;42.700;23.304;2023-05-24T12:23:36;94860.19;;;25.95;43.77
5500;BME280;2772;42.700;23.304;2023-05-24T12:26:04;94849.66;;;25.97;44.12
5500;BME280;2772;42.700;23.304;2023-05-24T12:28:35;94844.59;;;25.99;44.38
5500;BME280;2772;42.700;23.304;2023-05-24T12:31:03;94846.38;;;26.09;44.61
5500;BME280;2772;42.700;23.304;2023-05-24T12:33:34;94850.16;;;26.19;44.78
5500;BME280;2772;42.700;23.304;2023-05-24T12:36:02;94840.41;;;26.18;42.88
5500;BME280;2772;42.700;23.304;2023-05-24T12:38:30;94850.31;;;26.08;42.40
5500;BME280;2772;42.700;23.304;2023-05-24T12:40:59;94843.66;;;26.09;41.84
5500;BME280;2772;42.700;23.304;2023-05-24T12:43:26;94830.38;;;26.11;41.94
5500;BME280;2772;42.700;23.304;2023-05-24T12:45:52;94835.00;;;26.14;42.44
5500;BME280;2772;42.700;23.304;2023-05-24T12:48:20;94836.63;;;26.12;41.74
5500;BME280;2772;42.700;23.304;2023-05-24T12:50:49;94838.94;;;26.13;42.67
5500;BME280;2772;42.700;23.304;2023-05-24T12:53:16;94838.41;;;26.22;42.39
5500;BME280;2772;42.700;23.304;2023-05-24T12:55:44;94837.91;;;26.30;42.56
5500;BME280;2772;42.700;23.304;2023-05-24T12:58:11;94833.16;;;26.34;42.13
5500;BME280;2772;42.700;23.304;2023-05-24T13:00:40;94831.38;;;26.48;41.53
5500;BME280;2772;42.700;23.304;2023-05-24T13:03:08;94824.25;;;26.54;42.01
5500;BME280;2772;42.700;23.304;2023-05-24T13:05:35;94825.84;;;26.78;42.51
5500;BME280;2772;42.700;23.304;2023-05-24T13:08:03;94818.72;;;26.84;42.51
5500;BME280;2772;42.700;23.304;2023-05-24T13:10:30;94826.78;;;26.91;41.91